Weather at Bahrain International Airport

Public forecast

Using degrees Celsius for public forecast. Weather courtesy of forecast.io.

Current aviation weather report (METAR) for Bahrain International Airport

Retrieved 2021/02/25 01:30 UTC (0 seconds ago):

OBBI 250130Z 35010KT CAVOK 19/15 Q1012 NOSIG

Aviation forecast (TAF) for Bahrain International Airport

Retrieved 2021-02-25 00:00 UTC (1 hour ago):

TAF OBBI 242300Z 2500/2606 34010KT 9000 -RA FEW010 SCT020 BKN080 BECMG 2501/2504 34017G27KT PROB30 TEMPO 2502/2512 28020G35KT 4500 -TSRA SCT030CB BKN080 PROB40 TEMPO 2505/2511 3000 RA BKN010